Time;durP1;ratioP1;P1;durP2;ratioP2;P2;SDS_P1;SDS_P2;PMS_P1;PMS_P2;Temp;Humidity;BMP_temperature;BMP_pressure;BME280_temperature;BME280_humidity;BME280_pressure;Samples;Min_cycle;Max_cycle;Signal;HPM_P1;HPM_P2
2022/03/28 00:03:37;;;;;;;13.35;7.78;;;;;;;;;;10369059;28;20038;-45
2022/03/28 00:08:38;;;;;;;11.43;7.47;;;;;;;;;;10367428;28;20029;-45
2022/03/28 00:13:39;;;;;;;30.73;8.00;;;;;;;;;;10368927;28;20030;-45
2022/03/28 00:18:39;;;;;;;14.48;7.07;;;;;;;;;;10368286;28;20052;-45
2022/03/28 00:23:40;;;;;;;14.20;8.05;;;;;;;;;;10367379;28;20025;-45
2022/03/28 00:28:40;;;;;;;13.85;7.47;;;;;;;;;;10368254;28;20043;-45
2022/03/28 00:33:41;;;;;;;12.95;7.85;;;;;;;;;;10368541;28;20110;-44
2022/03/28 00:38:42;;;;;;;10.15;7.53;;;;;;;;;;10368147;28;20033;-44
2022/03/28 00:43:54;;;;;;;13.52;7.60;;;;;;;;;;10367891;28;20033;-44
2022/03/28 00:48:54;;;;;;;12.85;8.00;;;;;;;;;;10367666;28;20065;-44
2022/03/28 00:53:55;;;;;;;11.93;7.97;;;;;;;;;;10367948;28;20038;-70
2022/03/28 00:58:58;;;;;;;11.55;7.95;;;;;;;;;;10350145;28;20076;-67
2022/03/28 01:03:58;;;;;;;9.90;6.93;;;;;;;;;;10367176;28;20049;-68
2022/03/28 01:08:59;;;;;;;10.43;7.47;;;;;;;;;;10362936;28;20041;-72
2022/03/28 01:14:00;;;;;;;12.23;7.38;;;;;;;;;;10349778;28;20026;-72
2022/03/28 01:19:01;;;;;;;11.85;7.65;;;;;;;;;;10366420;28;20034;-74
2022/03/28 01:24:02;;;;;;;11.57;7.38;;;;;;;;;;10367166;28;20290;-67
2022/03/28 01:29:03;;;;;;;15.40;7.05;;;;;;;;;;10367330;28;20277;-70
2022/03/28 01:34:04;;;;;;;11.80;7.60;;;;;;;;;;10366875;28;20038;-67
2022/03/28 01:39:05;;;;;;;10.98;6.68;;;;;;;;;;10367184;28;20034;-71
2022/03/28 01:44:06;;;;;;;12.23;6.90;;;;;;;;;;10368140;28;20108;-67
2022/03/28 01:49:06;;;;;;;11.95;6.57;;;;;;;;;;10374313;28;20585;-71
2022/03/28 01:54:07;;;;;;;10.43;6.53;;;;;;;;;;10373861;28;20029;-44
2022/03/28 01:59:09;;;;;;;9.98;6.57;;;;;;;;;;10373403;28;20116;-44
2022/03/28 02:04:10;;;;;;;8.43;6.75;;;;;;;;;;10373484;28;20033;-43
2022/03/28 02:09:11;;;;;;;10.23;6.55;;;;;;;;;;10373752;28;20049;-44
2022/03/28 02:14:11;;;;;;;9.95;6.60;;;;;;;;;;10372988;28;20030;-44
2022/03/28 02:19:12;;;;;;;10.40;6.68;;;;;;;;;;10373159;28;20045;-44
2022/03/28 02:24:12;;;;;;;9.43;7.10;;;;;;;;;;10373091;28;20265;-44
2022/03/28 02:29:13;;;;;;;9.63;6.55;;;;;;;;;;10372420;28;20038;-43
2022/03/28 02:34:14;;;;;;;9.75;6.70;;;;;;;;;;10372747;28;20041;-45
2022/03/28 02:39:14;;;;;;;8.82;6.85;;;;;;;;;;10371909;28;20048;-45
2022/03/28 02:44:17;;;;;;;11.60;6.88;;;;;;;;;;10372308;28;20026;-44
2022/03/28 02:49:19;;;;;;;11.13;6.72;;;;;;;;;;10372151;28;20112;-44
2022/03/28 02:54:19;;;;;;;10.00;6.63;;;;;;;;;;10371533;28;20385;-71
2022/03/28 02:59:20;;;;;;;8.82;6.18;;;;;;;;;;10371350;28;20046;-71
2022/03/28 03:04:21;;;;;;;10.82;6.65;;;;;;;;;;10371200;28;20056;-70
2022/03/28 03:09:21;;;;;;;9.25;6.47;;;;;;;;;;10370786;28;20038;-71
2022/03/28 03:14:23;;;;;;;7.40;5.57;;;;;;;;;;10370837;28;20038;-71
2022/03/28 03:19:24;;;;;;;9.20;6.20;;;;;;;;;;10370937;28;20084;-72
2022/03/28 03:24:24;;;;;;;7.63;6.03;;;;;;;;;;10370235;28;20516;-70
2022/03/28 03:29:25;;;;;;;9.70;6.03;;;;;;;;;;10370287;28;20476;-71
2022/03/28 03:34:26;;;;;;;7.72;5.85;;;;;;;;;;10370559;28;20539;-72
2022/03/28 03:39:27;;;;;;;11.95;6.55;;;;;;;;;;10370261;28;20048;-72
2022/03/28 03:44:28;;;;;;;11.82;6.63;;;;;;;;;;10369462;28;20049;-71
2022/03/28 03:49:28;;;;;;;8.18;5.75;;;;;;;;;;10369636;28;20037;-71
2022/03/28 03:54:30;;;;;;;9.43;6.05;;;;;;;;;;10369036;28;20497;-44
2022/03/28 03:59:31;;;;;;;8.13;6.22;;;;;;;;;;10369048;28;20046;-43
2022/03/28 04:04:32;;;;;;;6.70;5.82;;;;;;;;;;10368982;28;20033;-44
2022/03/28 04:09:32;;;;;;;9.60;6.10;;;;;;;;;;10368110;28;20033;-43
2022/03/28 04:14:33;;;;;;;10.32;6.03;;;;;;;;;;10368534;28;20037;-44
2022/03/28 04:19:34;;;;;;;8.27;5.95;;;;;;;;;;10368466;28;20057;-44
2022/03/28 04:24:34;;;;;;;7.38;5.85;;;;;;;;;;10368084;28;20029;-44
2022/03/28 04:29:35;;;;;;;8.43;5.70;;;;;;;;;;10368324;28;20473;-44
2022/03/28 04:34:35;;;;;;;8.27;5.57;;;;;;;;;;10367962;28;20470;-44
2022/03/28 04:39:36;;;;;;;7.85;5.63;;;;;;;;;;10367646;28;20034;-45
2022/03/28 04:44:37;;;;;;;7.47;5.60;;;;;;;;;;10367772;28;20086;-44
2022/03/28 04:49:37;;;;;;;8.45;5.80;;;;;;;;;;10367547;28;20037;-43
2022/03/28 04:54:38;;;;;;;8.05;6.13;;;;;;;;;;10367588;28;20022;-44
2022/03/28 04:59:38;;;;;;;6.38;5.30;;;;;;;;;;10367283;28;20046;-44
2022/03/28 05:04:39;;;;;;;7.40;5.55;;;;;;;;;;10366917;28;20033;-46
2022/03/28 05:09:40;;;;;;;6.50;5.53;;;;;;;;;;10367271;28;20155;-43
2022/03/28 05:14:40;;;;;;;7.55;6.00;;;;;;;;;;10366795;28;20041;-44
2022/03/28 05:19:43;;;;;;;11.05;6.18;;;;;;;;;;10370198;28;20034;-45
2022/03/28 05:24:43;;;;;;;7.40;5.65;;;;;;;;;;10375305;28;20469;-47
2022/03/28 05:29:44;;;;;;;7.90;5.38;;;;;;;;;;10375154;28;20041;-44
2022/03/28 05:34:45;;;;;;;6.65;5.25;;;;;;;;;;10373344;28;20026;-44
2022/03/28 05:39:47;;;;;;;8.15;5.50;;;;;;;;;;10374118;28;20022;-50
2022/03/28 05:44:48;;;;;;;7.53;5.53;;;;;;;;;;10374270;28;20461;-43
2022/03/28 05:49:49;;;;;;;7.95;5.63;;;;;;;;;;10373996;28;20037;-49
2022/03/28 05:54:49;;;;;;;6.10;5.38;;;;;;;;;;10372894;28;20062;-53
2022/03/28 05:59:51;;;;;;;15.93;6.22;;;;;;;;;;10368783;28;20041;-46
2022/03/28 06:04:51;;;;;;;10.35;6.05;;;;;;;;;;10371135;28;20088;-43
2022/03/28 06:09:52;;;;;;;15.88;6.93;;;;;;;;;;10388381;28;20041;-48
2022/03/28 06:14:53;;;;;;;17.85;7.20;;;;;;;;;;10392373;28;20092;-45
2022/03/28 06:19:53;;;;;;;28.23;8.35;;;;;;;;;;10370945;28;20026;-52
2022/03/28 06:24:54;;;;;;;16.40;7.65;;;;;;;;;;10372631;28;20036;-46
2022/03/28 06:29:55;;;;;;;26.35;8.43;;;;;;;;;;10354841;28;20021;-45
2022/03/28 06:34:55;;;;;;;34.42;9.43;;;;;;;;;;10371322;28;20072;-58
2022/03/28 06:39:56;;;;;;;27.33;8.65;;;;;;;;;;10371094;28;20021;-44
2022/03/28 06:44:57;;;;;;;23.45;8.77;;;;;;;;;;10371917;28;20254;-45
2022/03/28 06:49:57;;;;;;;36.10;9.02;;;;;;;;;;10372017;28;20049;-52
2022/03/28 06:54:58;;;;;;;26.08;9.00;;;;;;;;;;10371112;28;20033;-46
2022/03/28 06:59:59;;;;;;;22.00;9.32;;;;;;;;;;10336585;28;20088;-48
2022/03/28 07:04:59;;;;;;;16.27;8.93;;;;;;;;;;10370939;28;20033;-68
2022/03/28 07:10:00;;;;;;;17.27;8.88;;;;;;;;;;10371126;28;20037;-65
2022/03/28 07:15:00;;;;;;;23.95;8.45;;;;;;;;;;10370554;28;20495;-47
2022/03/28 07:20:01;;;;;;;14.15;8.55;;;;;;;;;;10370500;28;20454;-70
2022/03/28 07:25:03;;;;;;;27.45;9.43;;;;;;;;;;10370258;28;20247;-45
2022/03/28 07:30:04;;;;;;;16.10;8.73;;;;;;;;;;10370161;28;20057;-71
2022/03/28 07:35:06;;;;;;;23.58;9.05;;;;;;;;;;10369498;28;20124;-49
2022/03/28 07:40:09;;;;;;;16.50;9.15;;;;;;;;;;10369612;28;20524;-50
2022/03/28 07:45:10;;;;;;;18.17;10.27;;;;;;;;;;10368819;28;20026;-47
2022/03/28 07:50:12;;;;;;;18.77;9.88;;;;;;;;;;10369076;28;20029;-50
2022/03/28 07:55:13;;;;;;;17.10;9.38;;;;;;;;;;10369632;28;20032;-49
2022/03/28 08:00:16;;;;;;;16.40;10.20;;;;;;;;;;10369117;28;20030;-44
2022/03/28 08:05:17;;;;;;;26.05;10.85;;;;;;;;;;10368591;28;20129;-44
2022/03/28 08:10:19;;;;;;;21.15;11.15;;;;;;;;;;10368720;28;20030;-49
2022/03/28 08:15:22;;;;;;;21.25;10.48;;;;;;;;;;10368224;28;20022;-50
2022/03/28 08:20:22;;;;;;;19.55;10.57;;;;;;;;;;10368252;28;20030;-46
2022/03/28 08:25:23;;;;;;;22.40;11.02;;;;;;;;;;10368235;28;20428;-45
2022/03/28 08:30:24;;;;;;;23.67;10.55;;;;;;;;;;10368063;28;20108;-49
2022/03/28 08:35:25;;;;;;;15.07;10.30;;;;;;;;;;10367825;28;20026;-48
2022/03/28 08:40:26;;;;;;;16.17;11.13;;;;;;;;;;10367796;28;20026;-53
2022/03/28 08:45:27;;;;;;;19.25;11.50;;;;;;;;;;10367825;28;20041;-44
2022/03/28 08:50:27;;;;;;;18.77;10.07;;;;;;;;;;10367529;28;20030;-45
2022/03/28 08:55:28;;;;;;;17.13;11.25;;;;;;;;;;10367156;28;20050;-49
2022/03/28 09:00:29;;;;;;;19.23;9.82;;;;;;;;;;10367500;28;20033;-49
2022/03/28 09:05:38;;;;;;;15.38;9.63;;;;;;;;;;10363094;28;20030;-45
2022/03/28 09:10:46;;;;;;;18.27;10.88;;;;;;;;;;10366010;28;20025;-50
2022/03/28 09:15:57;;;;;;;20.58;10.40;;;;;;;;;;10366951;28;20394;-49
2022/03/28 09:21:03;;;;;;;17.33;9.73;;;;;;;;;;10367170;28;20037;-44
2022/03/28 09:26:23;;;;;;;17.52;10.00;;;;;;;;;;10366956;28;20041;-50
2022/03/28 09:31:34;;;;;;;15.23;9.75;;;;;;;;;;10367024;28;20105;-46
2022/03/28 09:36:50;;;;;;;16.98;10.10;;;;;;;;;;10363952;28;20030;-45
2022/03/28 09:42:11;;;;;;;17.67;10.98;;;;;;;;;;10326219;28;20481;-44
2022/03/28 09:47:24;;;;;;;20.20;10.35;;;;;;;;;;10325718;28;20026;-49
2022/03/28 09:52:28;;;;;;;15.70;9.25;;;;;;;;;;10325797;28;20041;-45
2022/03/28 09:57:35;;;;;;;14.00;9.40;;;;;;;;;;10325668;28;20062;-45
2022/03/28 10:02:36;;;;;;;12.60;8.95;;;;;;;;;;10325913;28;20102;-56
2022/03/28 10:07:37;;;;;;;13.35;8.18;;;;;;;;;;10331841;28;20058;-43
2022/03/28 10:12:39;;;;;;;19.90;9.85;;;;;;;;;;10332649;28;20062;-45
2022/03/28 10:17:41;;;;;;;15.38;9.55;;;;;;;;;;10340609;28;20033;-43
2022/03/28 10:22:48;;;;;;;16.50;9.93;;;;;;;;;;10372900;28;20026;-45
2022/03/28 10:27:53;;;;;;;14.65;10.13;;;;;;;;;;10355567;28;20037;-45
2022/03/28 10:33:21;;;;;;;15.45;9.55;;;;;;;;;;10355225;28;20034;-43
2022/03/28 10:38:22;;;;;;;13.65;9.15;;;;;;;;;;10372669;28;20262;-47
2022/03/28 10:43:26;;;;;;;12.52;9.20;;;;;;;;;;10371969;28;20049;-48
2022/03/28 10:49:05;;;;;;;12.90;9.45;;;;;;;;;;10371824;28;20112;-48
2022/03/28 10:54:07;;;;;;;14.77;9.77;;;;;;;;;;10371869;28;20496;-45
2022/03/28 10:59:17;;;;;;;14.52;9.95;;;;;;;;;;10371294;28;20140;-46
2022/03/28 11:04:23;;;;;;;17.00;9.30;;;;;;;;;;10371111;28;20030;-43
2022/03/28 11:10:13;;;;;;;14.35;9.07;;;;;;;;;;10371130;28;20030;-44
2022/03/28 11:15:20;;;;;;;14.60;10.38;;;;;;;;;;10368372;28;20054;-44
2022/03/28 11:20:23;;;;;;;13.43;9.48;;;;;;;;;;10370620;28;20422;-48
2022/03/28 11:25:58;;;;;;;15.15;10.07;;;;;;;;;;10370483;28;20358;-49
2022/03/28 11:31:10;;;;;;;13.63;9.73;;;;;;;;;;10369977;28;20061;-49
2022/03/28 11:36:18;;;;;;;16.75;9.60;;;;;;;;;;10370258;28;20030;-50
2022/03/28 11:41:22;;;;;;;13.77;9.43;;;;;;;;;;10365604;28;20061;-48
2022/03/28 11:46:30;;;;;;;16.40;10.20;;;;;;;;;;10365916;28;20274;-47
2022/03/28 11:51:39;;;;;;;15.73;10.85;;;;;;;;;;10402537;28;20044;-43
2022/03/28 12:02:03;;;;;;;14.50;10.13;;;;;;;;;;10366487;28;20049;-46
2022/03/28 12:07:04;;;;;;;13.95;10.05;;;;;;;;;;10368117;28;20021;-44
2022/03/28 12:12:04;;;;;;;16.98;10.93;;;;;;;;;;10351697;28;20068;-62
2022/03/28 12:17:06;;;;;;;16.83;11.85;;;;;;;;;;10368476;28;20029;-43
2022/03/28 12:22:21;;;;;;;16.58;11.00;;;;;;;;;;10368605;28;20469;-49
2022/03/28 12:27:23;;;;;;;17.27;11.30;;;;;;;;;;10366693;28;20161;-44
2022/03/28 12:32:24;;;;;;;18.40;11.68;;;;;;;;;;10367101;28;20084;-45
2022/03/28 12:37:27;;;;;;;18.10;11.77;;;;;;;;;;10367426;28;20045;-46
2022/03/28 12:42:28;;;;;;;21.60;12.43;;;;;;;;;;10365194;28;20507;-47
2022/03/28 12:47:29;;;;;;;21.23;12.40;;;;;;;;;;10366800;28;20022;-47
2022/03/28 12:52:31;;;;;;;19.45;12.32;;;;;;;;;;10363592;28;20038;-47
2022/03/28 12:57:36;;;;;;;19.00;11.32;;;;;;;;;;10361524;28;20073;-48
2022/03/28 13:02:53;;;;;;;16.65;12.02;;;;;;;;;;10363940;28;20410;-48
2022/03/28 13:07:53;;;;;;;20.10;11.32;;;;;;;;;;10364975;28;20022;-50
2022/03/28 13:12:58;;;;;;;18.02;11.70;;;;;;;;;;10366877;28;20389;-55
2022/03/28 13:18:12;;;;;;;22.42;12.35;;;;;;;;;;10366795;28;20101;-46
2022/03/28 13:23:27;;;;;;;20.13;12.50;;;;;;;;;;10367132;28;20053;-47
2022/03/28 13:28:29;;;;;;;27.33;13.30;;;;;;;;;;10367097;28;20480;-44
2022/03/28 13:33:30;;;;;;;24.17;15.43;;;;;;;;;;10364844;28;20030;-45
2022/03/28 13:38:37;;;;;;;27.13;16.15;;;;;;;;;;10365648;28;20409;-46
2022/03/28 13:43:37;;;;;;;29.92;16.77;;;;;;;;;;10374278;28;20030;-49
2022/03/28 13:48:38;;;;;;;31.00;16.98;;;;;;;;;;10374039;28;20385;-49
2022/03/28 13:53:39;;;;;;;27.27;16.13;;;;;;;;;;10374338;28;20065;-44
2022/03/28 13:58:41;;;;;;;33.67;16.08;;;;;;;;;;10373717;28;20050;-50
2022/03/28 14:03:42;;;;;;;24.70;16.27;;;;;;;;;;10373651;28;20037;-52
2022/03/28 14:08:43;;;;;;;26.58;16.00;;;;;;;;;;10373428;28;20448;-65
2022/03/28 14:13:43;;;;;;;28.58;17.52;;;;;;;;;;10373704;28;20030;-48
2022/03/28 14:18:44;;;;;;;26.17;15.98;;;;;;;;;;10372921;28;20030;-49
2022/03/28 14:23:45;;;;;;;25.88;17.20;;;;;;;;;;10373429;28;20084;-43
2022/03/28 14:28:46;;;;;;;29.75;16.77;;;;;;;;;;10372679;28;20025;-45
2022/03/28 14:33:47;;;;;;;33.25;17.02;;;;;;;;;;10372402;28;20029;-46
2022/03/28 14:38:47;;;;;;;28.77;16.77;;;;;;;;;;10352364;28;20477;-48
2022/03/28 14:43:48;;;;;;;26.92;17.10;;;;;;;;;;10371665;28;20026;-47
2022/03/28 14:48:49;;;;;;;30.25;16.83;;;;;;;;;;10371932;28;20034;-45
2022/03/28 14:53:50;;;;;;;26.23;16.15;;;;;;;;;;10368797;28;20045;-65
2022/03/28 14:58:50;;;;;;;28.73;16.70;;;;;;;;;;10369237;28;20511;-44
2022/03/28 15:03:51;;;;;;;23.17;15.82;;;;;;;;;;10370864;28;20211;-45
2022/03/28 15:08:53;;;;;;;26.52;16.25;;;;;;;;;;10370910;28;20033;-47
2022/03/28 15:13:53;;;;;;;25.90;15.32;;;;;;;;;;10371043;28;20104;-43
2022/03/28 15:18:54;;;;;;;24.73;15.43;;;;;;;;;;10370393;28;20029;-43
2022/03/28 15:23:55;;;;;;;25.02;15.85;;;;;;;;;;10370668;28;20030;-46
2022/03/28 15:28:56;;;;;;;19.70;14.35;;;;;;;;;;10370098;28;20032;-47
2022/03/28 15:33:59;;;;;;;20.40;14.40;;;;;;;;;;10370180;28;20109;-47
2022/03/28 15:39:00;;;;;;;19.67;14.93;;;;;;;;;;10369635;28;20068;-48
2022/03/28 15:44:01;;;;;;;24.30;14.90;;;;;;;;;;10366082;28;20025;-43
2022/03/28 15:49:03;;;;;;;19.50;14.38;;;;;;;;;;10366755;28;20025;-43
2022/03/28 15:54:06;;;;;;;22.08;15.05;;;;;;;;;;10367614;28;20037;-45
2022/03/28 15:59:08;;;;;;;23.70;15.02;;;;;;;;;;10368450;28;20279;-45
2022/03/28 16:04:13;;;;;;;25.30;15.02;;;;;;;;;;10368475;28;20036;-44
2022/03/28 16:09:18;;;;;;;23.90;14.82;;;;;;;;;;10369515;28;20116;-62
2022/03/28 16:14:20;;;;;;;21.92;15.35;;;;;;;;;;10368568;28;20033;-47
2022/03/28 16:19:21;;;;;;;18.90;14.68;;;;;;;;;;10368662;28;20037;-45
2022/03/28 16:24:22;;;;;;;24.85;15.13;;;;;;;;;;10368323;28;20045;-44
2022/03/28 16:29:22;;;;;;;24.48;14.48;;;;;;;;;;10368277;28;20022;-43
2022/03/28 16:34:23;;;;;;;20.63;14.90;;;;;;;;;;10367954;28;20473;-45
2022/03/28 16:39:24;;;;;;;20.33;14.93;;;;;;;;;;10367983;28;20042;-45
2022/03/28 16:44:24;;;;;;;24.60;14.93;;;;;;;;;;10366632;28;20029;-43
2022/03/28 16:49:25;;;;;;;20.05;14.45;;;;;;;;;;10364883;28;20033;-45
2022/03/28 16:54:27;;;;;;;24.48;14.85;;;;;;;;;;10365027;28;20040;-47
2022/03/28 16:59:28;;;;;;;23.48;15.00;;;;;;;;;;10367296;28;20413;-44
2022/03/28 17:04:28;;;;;;;22.67;14.18;;;;;;;;;;10366486;28;20045;-45
2022/03/28 17:09:29;;;;;;;20.55;13.90;;;;;;;;;;10347396;28;20033;-45
2022/03/28 17:14:29;;;;;;;28.38;14.32;;;;;;;;;;10369103;28;20034;-44
2022/03/28 17:19:30;;;;;;;21.00;13.40;;;;;;;;;;10375035;28;20041;-43
2022/03/28 17:24:31;;;;;;;16.25;13.20;;;;;;;;;;10375285;28;20030;-43
2022/03/28 17:29:32;;;;;;;23.52;12.85;;;;;;;;;;10374896;28;20055;-52
2022/03/28 17:34:33;;;;;;;18.63;13.35;;;;;;;;;;10374717;28;20026;-46
2022/03/28 17:39:33;;;;;;;19.30;13.05;;;;;;;;;;10370654;28;20038;-43
2022/03/28 17:44:34;;;;;;;20.17;12.25;;;;;;;;;;10372871;28;20595;-44
2022/03/28 17:49:34;;;;;;;22.83;12.95;;;;;;;;;;10371870;28;20404;-44
2022/03/28 17:54:35;;;;;;;20.23;12.35;;;;;;;;;;10373034;28;20398;-43
2022/03/28 17:59:36;;;;;;;31.58;13.95;;;;;;;;;;10373512;28;20046;-44
2022/03/28 18:04:37;;;;;;;22.88;12.40;;;;;;;;;;10373127;28;20034;-43
2022/03/28 18:09:37;;;;;;;29.27;13.25;;;;;;;;;;10369039;28;20695;-42
2022/03/28 18:14:38;;;;;;;26.70;12.98;;;;;;;;;;10371393;28;20029;-42
2022/03/28 18:19:39;;;;;;;30.88;13.20;;;;;;;;;;10372837;28;20033;-42
2022/03/28 18:24:40;;;;;;;23.38;12.57;;;;;;;;;;10371383;28;20037;-45
2022/03/28 18:29:41;;;;;;;20.35;11.65;;;;;;;;;;10373101;28;20617;-43
2022/03/28 18:34:42;;;;;;;23.40;12.27;;;;;;;;;;10372739;28;20161;-43
2022/03/28 18:39:43;;;;;;;23.83;11.30;;;;;;;;;;10372681;28;20037;-44
2022/03/28 18:44:44;;;;;;;21.15;11.60;;;;;;;;;;10369374;28;20061;-43
2022/03/28 18:49:45;;;;;;;22.55;11.55;;;;;;;;;;10370508;28;20034;-42
2022/03/28 18:54:46;;;;;;;22.65;11.68;;;;;;;;;;10371657;28;20075;-42
2022/03/28 18:59:47;;;;;;;22.17;11.23;;;;;;;;;;10370989;28;20049;-43
2022/03/28 19:04:49;;;;;;;20.85;10.75;;;;;;;;;;10371836;28;20052;-43
2022/03/28 19:09:50;;;;;;;20.55;9.45;;;;;;;;;;10371348;28;20088;-45
2022/03/28 19:14:51;;;;;;;23.25;10.95;;;;;;;;;;10371047;28;20030;-43
2022/03/28 19:19:52;;;;;;;20.13;10.90;;;;;;;;;;10370831;28;20038;-43
2022/03/28 19:24:53;;;;;;;21.17;10.32;;;;;;;;;;10369204;28;20034;-43
2022/03/28 19:29:54;;;;;;;17.45;10.20;;;;;;;;;;10370706;28;20108;-43
2022/03/28 19:34:55;;;;;;;16.63;10.32;;;;;;;;;;10370127;28;20052;-45
2022/03/28 19:39:56;;;;;;;18.40;10.73;;;;;;;;;;10368285;28;20042;-43
2022/03/28 19:44:56;;;;;;;21.50;10.30;;;;;;;;;;10367026;28;20041;-43
2022/03/28 19:49:59;;;;;;;16.40;9.55;;;;;;;;;;10349661;28;20022;-43
2022/03/28 19:55:00;;;;;;;17.40;9.18;;;;;;;;;;10329098;28;20061;-43
2022/03/28 20:00:01;;;;;;;20.05;9.30;;;;;;;;;;10328857;28;20042;-43
2022/03/28 20:05:03;;;;;;;23.63;9.82;;;;;;;;;;10347581;28;20336;-43
2022/03/28 20:10:04;;;;;;;18.88;9.02;;;;;;;;;;10369540;28;20385;-43
2022/03/28 20:15:06;;;;;;;15.85;9.82;;;;;;;;;;10368839;28;20025;-43
2022/03/28 20:20:07;;;;;;;17.75;8.77;;;;;;;;;;10369015;28;20056;-43
2022/03/28 20:25:09;;;;;;;16.40;8.82;;;;;;;;;;10368593;28;20061;-43
2022/03/28 20:30:10;;;;;;;17.30;9.40;;;;;;;;;;10368567;28;20051;-42
2022/03/28 20:35:11;;;;;;;14.52;8.50;;;;;;;;;;10368013;28;20030;-43
2022/03/28 20:40:12;;;;;;;17.38;9.20;;;;;;;;;;10368244;28;20029;-43
2022/03/28 20:45:12;;;;;;;31.05;10.73;;;;;;;;;;10367485;28;20100;-43
2022/03/28 20:50:14;;;;;;;33.17;10.88;;;;;;;;;;10366912;28;20030;-43
2022/03/28 20:55:14;;;;;;;25.42;10.40;;;;;;;;;;10363567;28;20149;-42
2022/03/28 21:00:15;;;;;;;20.05;9.73;;;;;;;;;;10361094;28;20034;-42
2022/03/28 21:05:16;;;;;;;25.48;10.05;;;;;;;;;;10366294;28;20101;-43
2022/03/28 21:10:17;;;;;;;24.30;10.20;;;;;;;;;;10366959;28;20034;-42
2022/03/28 21:15:19;;;;;;;18.25;9.90;;;;;;;;;;10367369;28;20474;-43
2022/03/28 21:20:20;;;;;;;18.52;9.18;;;;;;;;;;10366912;28;20481;-42
2022/03/28 21:25:22;;;;;;;19.38;10.13;;;;;;;;;;10366654;28;20080;-42
2022/03/28 21:30:22;;;;;;;17.23;8.43;;;;;;;;;;10363913;28;20394;-43
2022/03/28 21:35:23;;;;;;;23.40;9.57;;;;;;;;;;10363698;28;20040;-43
2022/03/28 21:40:24;;;;;;;15.38;9.15;;;;;;;;;;10365911;28;20030;-43
2022/03/28 21:45:24;;;;;;;18.40;8.77;;;;;;;;;;10365743;28;20064;-42
2022/03/28 21:50:25;;;;;;;12.95;8.90;;;;;;;;;;10363754;28;20081;-43
2022/03/28 21:55:26;;;;;;;21.83;10.05;;;;;;;;;;10355534;28;20046;-43
2022/03/28 22:00:53;;;;;;;12.27;8.52;;;;;;;;;;10367000;28;20454;-42
2022/03/28 22:05:57;;;;;;;17.08;8.57;;;;;;;;;;10373648;28;20029;-45
2022/03/28 22:10:58;;;;;;;16.10;8.13;;;;;;;;;;10373493;28;20084;-45
2022/03/28 22:15:58;;;;;;;14.82;7.90;;;;;;;;;;10372721;28;20041;-44
2022/03/28 22:21:00;;;;;;;11.50;7.85;;;;;;;;;;10373351;28;20431;-43
2022/03/28 22:26:01;;;;;;;14.43;8.13;;;;;;;;;;10373014;28;20030;-43
2022/03/28 22:31:01;;;;;;;14.20;8.25;;;;;;;;;;10372971;28;20050;-43
2022/03/28 22:36:02;;;;;;;10.63;7.85;;;;;;;;;;10372100;28;20030;-54
2022/03/28 22:41:03;;;;;;;13.35;7.60;;;;;;;;;;10372646;28;20076;-47
2022/03/28 22:46:03;;;;;;;17.48;7.60;;;;;;;;;;10369048;28;20477;-42
2022/03/28 22:51:04;;;;;;;15.98;8.60;;;;;;;;;;10367779;28;20041;-43
2022/03/28 23:40:14;;;;;;;8.88;7.20;;;;;;;;;;8161114;28;20045;-42
2022/03/28 23:45:15;;;;;;;9.75;6.32;;;;;;;;;;10369766;28;20038;-42
2022/03/28 23:50:18;;;;;;;13.13;7.03;;;;;;;;;;10369518;28;20030;-42
2022/03/28 23:55:19;;;;;;;11.60;6.68;;;;;;;;;;10369551;28;20104;-42
